Time;durP1;ratioP1;P1;durP2;ratioP2;P2;SDS_P1;SDS_P2;PMS_P1;PMS_P2;Temp;Humidity;BMP_temperature;BMP_pressure;BME280_temperature;BME280_humidity;BME280_pressure;Samples;Min_cycle;Max_cycle;Signal;HPM_P1;HPM_P2
2023/04/17 00:00:30;;;;;;;61.35;37.42;;;10.20;99.90;;;;;;5032633;28;20060;-54
2023/04/17 00:02:55;;;;;;;60.28;35.05;;;10.20;99.90;;;;;;5035277;28;20338;-54
2023/04/17 00:05:25;;;;;;;56.78;34.95;;;10.20;99.90;;;;;;5033808;28;20139;-54
2023/04/17 00:07:50;;;;;;;51.65;33.60;;;10.30;99.90;;;;;;5033606;28;20041;-54
2023/04/17 00:10:16;;;;;;;57.03;35.50;;;10.10;99.90;;;;;;5033395;28;20080;-53
2023/04/17 00:12:41;;;;;;;54.10;34.92;;;10.00;99.90;;;;;;5039331;28;20037;-53
2023/04/17 00:15:07;;;;;;;49.80;34.63;;;10.00;99.90;;;;;;5033960;28;20215;-54
2023/04/17 00:17:33;;;;;;;53.53;35.25;;;10.10;99.90;;;;;;5033988;28;20061;-54
2023/04/17 00:19:59;;;;;;;53.30;35.70;;;10.00;99.90;;;;;;5036307;28;20039;-52
2023/04/17 00:22:25;;;;;;;54.72;35.70;;;10.00;99.90;;;;;;5033839;28;20045;-52
2023/04/17 00:24:50;;;;;;;53.40;35.40;;;10.10;99.90;;;;;;5034948;28;20060;-52
2023/04/17 00:27:16;;;;;;;49.75;35.30;;;10.00;99.90;;;;;;5031326;28;20530;-54
2023/04/17 00:29:41;;;;;;;54.70;36.13;;;10.00;99.90;;;;;;5033274;28;20132;-53
2023/04/17 00:32:07;;;;;;;53.55;35.10;;;10.00;99.90;;;;;;5035339;28;20032;-52
2023/04/17 00:34:32;;;;;;;52.75;33.80;;;10.00;99.90;;;;;;5038336;28;20085;-53
2023/04/17 00:36:58;;;;;;;54.13;35.10;;;10.00;99.90;;;;;;5033394;28;20045;-54
2023/04/17 00:39:24;;;;;;;53.17;33.10;;;10.00;99.90;;;;;;5031644;28;20040;-54
2023/04/17 00:41:50;;;;;;;46.03;31.77;;;10.00;99.90;;;;;;5031834;28;20047;-54
2023/04/17 00:44:15;;;;;;;50.20;32.03;;;10.00;99.90;;;;;;5031128;28;20037;-53
2023/04/17 00:46:41;;;;;;;52.72;32.47;;;9.90;99.90;;;;;;5033680;28;20037;-52
2023/04/17 00:49:07;;;;;;;49.25;32.83;;;9.90;99.90;;;;;;5035674;28;20036;-53
2023/04/17 00:51:34;;;;;;;47.67;33.10;;;10.00;99.90;;;;;;5034476;28;20373;-51
2023/04/17 00:53:59;;;;;;;50.97;35.08;;;10.00;99.90;;;;;;5033543;28;20041;-54
2023/04/17 00:56:27;;;;;;;51.22;33.97;;;10.20;99.90;;;;;;5033061;28;20093;-54
2023/04/17 00:58:55;;;;;;;50.13;34.35;;;10.10;99.90;;;;;;5034236;28;20033;-53
2023/04/17 01:01:21;;;;;;;50.90;34.28;;;10.00;99.90;;;;;;5034772;28;20037;-52
2023/04/17 01:03:49;;;;;;;51.67;35.03;;;9.90;99.90;;;;;;5032534;28;20718;-54
2023/04/17 01:06:15;;;;;;;54.53;35.15;;;9.90;99.90;;;;;;5033508;28;20562;-53
2023/04/17 01:08:42;;;;;;;54.25;35.05;;;9.90;99.90;;;;;;5032831;28;20465;-52
2023/04/17 01:11:08;;;;;;;49.97;34.63;;;9.90;99.90;;;;;;5034221;28;20037;-55
2023/04/17 01:13:42;;;;;;;50.97;35.38;;;9.90;99.90;;;;;;5033642;28;20036;-56
2023/04/17 01:16:07;;;;;;;60.20;36.42;;;9.90;99.90;;;;;;5032149;28;20873;-51
2023/04/17 01:18:33;;;;;;;59.78;35.75;;;9.80;99.90;;;;;;5034370;28;20087;-54
2023/04/17 01:20:59;;;;;;;57.90;38.33;;;9.80;99.90;;;;;;5034056;28;21329;-53
2023/04/17 01:23:25;;;;;;;56.22;35.53;;;9.90;99.90;;;;;;5031676;28;20388;-53
2023/04/17 01:25:51;;;;;;;60.13;36.17;;;9.90;99.90;;;;;;5031242;28;20672;-53
2023/04/17 01:28:17;;;;;;;55.22;37.10;;;9.90;99.90;;;;;;5034246;28;20044;-52
2023/04/17 01:30:42;;;;;;;51.42;34.35;;;9.80;99.90;;;;;;5040285;28;20070;-55
2023/04/17 01:33:08;;;;;;;50.63;34.83;;;9.70;99.90;;;;;;5034689;28;20154;-53
2023/04/17 01:35:33;;;;;;;53.97;35.70;;;9.80;99.90;;;;;;5030042;28;20037;-53
2023/04/17 01:37:59;;;;;;;59.55;35.75;;;9.80;99.90;;;;;;5033695;28;20087;-52
2023/04/17 01:40:25;;;;;;;56.08;38.17;;;9.80;99.90;;;;;;5033450;28;20040;-53
2023/04/17 01:42:50;;;;;;;57.70;38.13;;;9.80;99.90;;;;;;5033198;28;20469;-53
2023/04/17 01:45:16;;;;;;;55.47;38.22;;;9.70;99.90;;;;;;5022825;28;20045;-54
2023/04/17 01:47:41;;;;;;;60.28;38.35;;;9.70;99.90;;;;;;5035244;28;20114;-53
2023/04/17 01:50:10;;;;;;;58.47;37.50;;;9.70;99.90;;;;;;5032801;28;20143;-51
2023/04/17 01:52:35;;;;;;;62.38;39.30;;;9.70;99.90;;;;;;5036337;28;21043;-53
2023/04/17 01:55:02;;;;;;;61.60;40.05;;;9.70;99.90;;;;;;5032380;28;20127;-54
2023/04/17 01:57:28;;;;;;;60.72;39.10;;;9.80;99.90;;;;;;5031161;28;20071;-52
2023/04/17 01:59:54;;;;;;;61.58;40.83;;;9.70;99.90;;;;;;5036805;28;20032;-53
2023/04/17 02:02:20;;;;;;;64.88;39.83;;;9.70;99.90;;;;;;5032132;28;20068;-52
2023/04/17 02:04:45;;;;;;;59.30;39.55;;;9.70;99.90;;;;;;5033554;28;20465;-54
2023/04/17 02:07:11;;;;;;;60.83;39.05;;;9.70;99.90;;;;;;5031510;28;20638;-54
2023/04/17 02:09:37;;;;;;;55.83;38.17;;;9.70;99.90;;;;;;5031220;28;20051;-53
2023/04/17 02:12:02;;;;;;;62.90;38.75;;;9.70;99.90;;;;;;5031351;28;20045;-53
2023/04/17 02:14:29;;;;;;;59.17;37.78;;;9.70;99.90;;;;;;5033343;28;20494;-53
2023/04/17 02:16:55;;;;;;;55.80;38.42;;;9.50;99.90;;;;;;5031922;28;20060;-49
2023/04/17 02:19:21;;;;;;;58.05;39.40;;;9.60;99.90;;;;;;5029277;28;20040;-51
2023/04/17 02:21:47;;;;;;;62.17;39.45;;;9.60;99.90;;;;;;5033940;28;20033;-52
2023/04/17 02:24:12;;;;;;;64.00;38.00;;;9.60;99.90;;;;;;5034345;28;20102;-52
2023/04/17 02:26:39;;;;;;;58.63;38.17;;;9.50;99.90;;;;;;5027382;28;20076;-53
2023/04/17 02:29:05;;;;;;;60.95;40.70;;;9.50;99.90;;;;;;5027924;28;20053;-52
2023/04/17 02:31:30;;;;;;;59.50;40.38;;;9.50;99.90;;;;;;5040752;28;20127;-54
2023/04/17 02:33:56;;;;;;;61.30;38.80;;;9.60;99.90;;;;;;5031958;28;20041;-54
2023/04/17 02:36:22;;;;;;;58.88;39.38;;;9.60;99.90;;;;;;5031386;28;20408;-52
2023/04/17 02:38:47;;;;;;;61.80;39.30;;;9.60;99.90;;;;;;5033605;28;20033;-52
2023/04/17 02:41:13;;;;;;;63.42;39.65;;;9.50;99.90;;;;;;5031023;28;20530;-54
2023/04/17 02:43:38;;;;;;;60.15;39.80;;;9.50;99.90;;;;;;5034787;28;20124;-52
2023/04/17 02:46:04;;;;;;;60.75;39.30;;;9.60;99.90;;;;;;5034469;28;20065;-52
2023/04/17 02:48:30;;;;;;;65.97;41.30;;;9.50;99.90;;;;;;5035551;28;20044;-54
2023/04/17 02:50:55;;;;;;;66.18;41.55;;;9.50;99.90;;;;;;5034252;28;20089;-54
2023/04/17 02:53:21;;;;;;;66.15;42.70;;;9.40;99.90;;;;;;5037806;28;20068;-53
2023/04/17 02:55:46;;;;;;;70.80;43.90;;;9.40;99.90;;;;;;5031604;28;20055;-52
2023/04/17 02:58:12;;;;;;;66.80;43.05;;;9.40;99.90;;;;;;5032166;28;20048;-54
2023/04/17 03:00:38;;;;;;;69.70;42.38;;;9.50;99.90;;;;;;5032872;28;20376;-52
2023/04/17 03:03:03;;;;;;;72.78;44.03;;;9.40;99.90;;;;;;5030471;28;20322;-53
2023/04/17 03:05:29;;;;;;;68.10;43.17;;;9.40;99.90;;;;;;5032151;28;20052;-54
2023/04/17 03:07:57;;;;;;;71.07;44.05;;;9.30;99.90;;;;;;5034611;28;20128;-54
2023/04/17 03:10:23;;;;;;;67.03;44.55;;;9.30;99.90;;;;;;5038611;28;20355;-53
2023/04/17 03:12:48;;;;;;;75.80;46.40;;;9.30;99.90;;;;;;5034742;28;20632;-52
2023/04/17 03:15:14;;;;;;;75.75;46.80;;;9.30;99.90;;;;;;5032356;28;20041;-53
2023/04/17 03:17:39;;;;;;;76.78;48.53;;;9.30;99.90;;;;;;5037185;28;20058;-53
2023/04/17 03:20:06;;;;;;;71.20;46.05;;;9.40;99.90;;;;;;5018189;28;20040;-54
2023/04/17 03:22:32;;;;;;;83.68;47.13;;;9.40;99.90;;;;;;5036236;28;20037;-53
2023/04/17 03:24:58;;;;;;;82.70;46.83;;;9.40;99.90;;;;;;5033930;28;20102;-53
2023/04/17 03:27:23;;;;;;;74.07;46.78;;;9.30;99.90;;;;;;5038220;28;20386;-54
2023/04/17 03:29:54;;;;;;;81.82;49.08;;;9.30;99.90;;;;;;5035849;28;20428;-54
2023/04/17 03:32:20;;;;;;;77.47;46.50;;;9.50;99.90;;;;;;5033813;28;20520;-54
2023/04/17 03:34:46;;;;;;;80.93;47.20;;;9.40;99.90;;;;;;5032475;28;20041;-54
2023/04/17 03:37:11;;;;;;;79.90;48.28;;;9.40;99.90;;;;;;5035085;28;20111;-51
2023/04/17 03:39:37;;;;;;;76.80;48.50;;;9.30;99.90;;;;;;5036059;28;20085;-53
2023/04/17 03:42:02;;;;;;;80.28;47.05;;;9.50;99.90;;;;;;5035538;28;20037;-52
2023/04/17 03:44:28;;;;;;;81.95;47.65;;;9.40;99.90;;;;;;5035460;28;20055;-53
2023/04/17 03:46:53;;;;;;;80.45;48.75;;;9.30;99.90;;;;;;5034857;28;20416;-53
2023/04/17 03:49:19;;;;;;;81.97;47.20;;;9.30;99.90;;;;;;5033478;28;20045;-53
2023/04/17 03:51:45;;;;;;;79.63;46.25;;;9.30;99.90;;;;;;5035962;28;20040;-54
2023/04/17 03:54:10;;;;;;;81.72;48.58;;;9.30;99.90;;;;;;5029861;28;20083;-52
2023/04/17 03:56:36;;;;;;;78.70;48.20;;;9.30;99.90;;;;;;5034802;28;20036;-53
2023/04/17 03:59:05;;;;;;;76.50;45.88;;;9.40;99.90;;;;;;5033436;28;20055;-53
2023/04/17 04:01:31;;;;;;;76.18;43.88;;;9.40;99.90;;;;;;5035352;28;20037;-52
2023/04/17 04:03:58;;;;;;;77.50;48.33;;;9.30;99.90;;;;;;5033064;28;20589;-53
2023/04/17 04:06:23;;;;;;;81.97;48.65;;;9.30;99.90;;;;;;5036789;28;21129;-54
2023/04/17 04:08:49;;;;;;;80.85;49.25;;;9.50;99.90;;;;;;5041064;28;20136;-54
2023/04/17 04:11:15;;;;;;;79.82;48.03;;;9.40;99.90;;;;;;5032565;28;20049;-54
2023/04/17 04:13:41;;;;;;;81.03;48.85;;;9.50;99.90;;;;;;5035043;28;20189;-54
2023/04/17 04:16:07;;;;;;;78.45;47.35;;;9.50;99.90;;;;;;5034380;28;20603;-53
2023/04/17 04:18:33;;;;;;;84.10;48.78;;;9.50;99.90;;;;;;5035131;28;20522;-54
2023/04/17 04:20:58;;;;;;;81.28;48.90;;;9.60;99.90;;;;;;5033405;28;20033;-53
2023/04/17 04:23:24;;;;;;;76.97;47.85;;;9.50;99.90;;;;;;5036698;28;20545;-53
2023/04/17 04:25:50;;;;;;;81.63;49.05;;;9.40;99.90;;;;;;5028934;28;20029;-53
2023/04/17 04:28:16;;;;;;;84.40;48.70;;;9.30;99.90;;;;;;5032147;28;20045;-52
2023/04/17 04:30:49;;;;;;;83.78;49.22;;;9.50;99.90;;;;;;5030401;28;20075;-52
2023/04/17 04:33:21;;;;;;;80.50;49.33;;;9.50;99.90;;;;;;5037656;28;20437;-53
2023/04/17 04:35:47;;;;;;;78.38;48.42;;;9.40;99.90;;;;;;5034812;28;20473;-52
2023/04/17 04:38:14;;;;;;;81.63;48.78;;;9.30;99.90;;;;;;5034241;28;20151;-53
2023/04/17 04:40:42;;;;;;;79.72;49.17;;;9.30;99.90;;;;;;5036728;28;20119;-52
2023/04/17 04:43:08;;;;;;;76.20;46.75;;;9.30;99.90;;;;;;5035654;28;20123;-53
2023/04/17 04:45:34;;;;;;;81.53;47.13;;;9.30;99.90;;;;;;5031808;28;20044;-54
2023/04/17 04:48:00;;;;;;;78.10;47.22;;;9.20;99.90;;;;;;5037211;28;20048;-53
2023/04/17 04:50:25;;;;;;;78.38;48.92;;;9.20;99.90;;;;;;5032732;28;20150;-53
2023/04/17 04:52:51;;;;;;;73.82;45.85;;;9.40;99.90;;;;;;5032516;28;20144;-53
2023/04/17 04:55:18;;;;;;;79.70;47.83;;;9.40;99.90;;;;;;5030690;28;20194;-53
2023/04/17 04:57:44;;;;;;;72.15;47.05;;;9.40;99.90;;;;;;5033296;28;20098;-51
2023/04/17 05:00:12;;;;;;;72.25;46.10;;;9.40;99.90;;;;;;5032432;28;21231;-54
2023/04/17 05:02:37;;;;;;;73.90;45.22;;;9.30;99.90;;;;;;5033272;28;20492;-51
2023/04/17 05:05:03;;;;;;;72.75;45.38;;;9.40;99.90;;;;;;5032577;28;20043;-53
2023/04/17 05:07:29;;;;;;;77.35;46.05;;;9.30;99.90;;;;;;5032911;28;20053;-53
2023/04/17 05:09:55;;;;;;;76.20;47.40;;;9.20;99.90;;;;;;5034235;28;20382;-53
2023/04/17 05:12:20;;;;;;;77.07;46.47;;;9.30;99.90;;;;;;5026400;28;20107;-52
2023/04/17 05:14:46;;;;;;;76.65;46.40;;;9.20;99.90;;;;;;5031783;28;20033;-54
2023/04/17 05:17:12;;;;;;;71.28;44.40;;;9.10;99.90;;;;;;5035778;28;20597;-51
2023/04/17 05:19:37;;;;;;;74.72;45.10;;;9.30;99.90;;;;;;5035901;28;20108;-52
2023/04/17 05:22:03;;;;;;;74.22;45.20;;;9.20;99.90;;;;;;5035214;28;20048;-52
2023/04/17 05:24:29;;;;;;;75.07;45.53;;;9.20;99.90;;;;;;5038050;28;20035;-53
2023/04/17 05:26:55;;;;;;;73.75;46.03;;;9.30;99.90;;;;;;5028044;28;20507;-54
2023/04/17 05:29:23;;;;;;;74.63;47.40;;;9.30;99.90;;;;;;5032846;28;20957;-53
2023/04/17 05:31:49;;;;;;;71.43;46.40;;;9.30;99.90;;;;;;5038892;28;20464;-52
2023/04/17 05:34:14;;;;;;;76.63;47.42;;;9.40;99.90;;;;;;5035043;28;20109;-53
2023/04/17 05:36:40;;;;;;;75.85;47.72;;;9.50;99.90;;;;;;5046922;28;20040;-53
2023/04/17 05:39:06;;;;;;;78.25;47.30;;;9.40;99.90;;;;;;5031754;28;20457;-52
2023/04/17 05:41:32;;;;;;;74.75;45.72;;;9.50;99.90;;;;;;5033176;28;20029;-52
2023/04/17 05:43:58;;;;;;;72.15;44.15;;;9.30;99.90;;;;;;5032849;28;20036;-54
2023/04/17 05:46:23;;;;;;;80.85;47.17;;;9.20;99.90;;;;;;5020197;28;20048;-54
2023/04/17 05:48:49;;;;;;;76.43;46.85;;;9.20;99.90;;;;;;5030692;28;20037;-54
2023/04/17 05:51:15;;;;;;;77.35;46.55;;;9.30;99.90;;;;;;5034004;28;20147;-53
2023/04/17 05:53:43;;;;;;;82.28;48.38;;;9.30;99.90;;;;;;5031396;28;20210;-55
2023/04/17 05:56:09;;;;;;;77.43;47.22;;;9.40;99.90;;;;;;5031530;28;20526;-53
2023/04/17 05:58:35;;;;;;;81.07;48.55;;;9.30;99.90;;;;;;5036025;28;20174;-54
2023/04/17 06:01:01;;;;;;;84.60;48.60;;;9.50;99.90;;;;;;5037697;28;20685;-54
2023/04/17 06:03:26;;;;;;;74.93;46.97;;;9.40;99.90;;;;;;5035685;28;20041;-54
2023/04/17 06:05:52;;;;;;;79.68;46.40;;;9.50;99.90;;;;;;5041613;28;20035;-51
2023/04/17 06:08:17;;;;;;;79.65;49.40;;;9.40;99.90;;;;;;5033457;28;20126;-51
2023/04/17 06:10:44;;;;;;;74.38;46.35;;;9.40;99.90;;;;;;5035272;28;20033;-51
2023/04/17 06:13:10;;;;;;;77.03;46.35;;;9.40;99.90;;;;;;5036142;28;20121;-52
2023/04/17 06:15:35;;;;;;;74.43;48.50;;;9.50;99.90;;;;;;5036225;28;20877;-53
2023/04/17 06:18:01;;;;;;;76.13;47.50;;;9.60;99.90;;;;;;5037386;28;20094;-53
2023/04/17 06:20:26;;;;;;;69.70;45.83;;;9.50;99.90;;;;;;5030299;28;20127;-52
2023/04/17 06:22:52;;;;;;;77.72;47.80;;;9.50;99.90;;;;;;5034230;28;20199;-53
2023/04/17 06:25:18;;;;;;;77.07;46.55;;;9.60;99.90;;;;;;5030767;28;20114;-53
2023/04/17 06:27:43;;;;;;;76.22;47.58;;;9.60;99.90;;;;;;5034737;28;20067;-53
2023/04/17 06:30:09;;;;;;;80.40;48.42;;;9.60;99.90;;;;;;5030920;28;20758;-52
2023/04/17 06:32:39;;;;;;;78.28;49.08;;;9.80;99.90;;;;;;5033103;28;20039;-54
2023/04/17 06:35:05;;;;;;;77.60;48.15;;;9.90;99.90;;;;;;5032207;28;20433;-53
2023/04/17 06:37:31;;;;;;;71.63;47.28;;;9.90;99.90;;;;;;5036479;28;20041;-52
2023/04/17 06:39:56;;;;;;;73.80;48.40;;;9.80;99.90;;;;;;5036653;28;20351;-52
2023/04/17 06:42:22;;;;;;;73.45;46.72;;;9.80;99.90;;;;;;5033292;28;20046;-54
2023/04/17 06:44:47;;;;;;;78.40;49.97;;;9.80;99.90;;;;;;5029430;28;20045;-53
2023/04/17 06:47:13;;;;;;;77.03;46.08;;;9.80;99.90;;;;;;5035507;28;20033;-51
2023/04/17 06:49:39;;;;;;;76.72;48.92;;;9.70;99.90;;;;;;5039877;28;20039;-52
2023/04/17 06:52:04;;;;;;;75.78;47.50;;;9.70;99.90;;;;;;5038379;28;20353;-53
2023/04/17 06:54:30;;;;;;;79.45;48.22;;;9.80;99.90;;;;;;5038690;28;20862;-52
2023/04/17 06:56:55;;;;;;;77.03;48.13;;;9.70;99.90;;;;;;5040541;28;20045;-51
2023/04/17 06:59:21;;;;;;;73.72;48.72;;;9.80;99.90;;;;;;5040221;28;20037;-53
2023/04/17 07:01:47;;;;;;;81.38;49.67;;;9.80;99.90;;;;;;5043952;28;20142;-53
2023/04/17 07:04:12;;;;;;;79.65;49.28;;;9.90;99.90;;;;;;5040873;28;20025;-53
2023/04/17 07:06:38;;;;;;;75.35;48.92;;;9.80;99.90;;;;;;5043809;28;20047;-51
2023/04/17 07:09:04;;;;;;;77.07;48.70;;;9.80;99.90;;;;;;5043548;28;20121;-53
2023/04/17 07:11:30;;;;;;;79.32;49.42;;;9.80;99.90;;;;;;5043267;28;20037;-53
2023/04/17 07:13:55;;;;;;;73.78;49.38;;;9.80;99.90;;;;;;5040042;28;20064;-52
2023/04/17 07:16:21;;;;;;;69.82;47.97;;;9.90;99.90;;;;;;5037038;28;20040;-52
2023/04/17 07:18:51;;;;;;;73.65;49.03;;;10.00;99.90;;;;;;5041246;28;20399;-51
2023/04/17 07:21:17;;;;;;;68.22;45.20;;;10.00;99.90;;;;;;5041048;28;20033;-51
2023/04/17 07:23:42;;;;;;;67.90;45.70;;;10.00;99.90;;;;;;5042289;28;20090;-52
2023/04/17 07:26:09;;;;;;;77.70;47.13;;;10.10;99.90;;;;;;5038840;28;20111;-53
2023/04/17 07:28:36;;;;;;;69.93;48.58;;;10.30;99.90;;;;;;5036473;28;20345;-53
2023/04/17 07:31:03;;;;;;;69.93;47.92;;;10.40;99.90;;;;;;5037682;28;20269;-53
2023/04/17 07:33:29;;;;;;;69.15;45.67;;;10.40;99.90;;;;;;5042171;28;20520;-52
2023/04/17 07:35:54;;;;;;;68.20;45.25;;;10.30;99.90;;;;;;5033738;28;20044;-53
2023/04/17 07:38:20;;;;;;;65.05;43.83;;;10.40;99.90;;;;;;5029298;28;20055;-53
2023/04/17 07:40:46;;;;;;;70.13;45.55;;;10.30;99.90;;;;;;5037191;28;20114;-52
2023/04/17 07:43:11;;;;;;;71.60;47.03;;;10.40;99.90;;;;;;5038905;28;20044;-53
2023/04/17 07:45:37;;;;;;;69.78;45.83;;;10.40;99.90;;;;;;5037655;28;20492;-53
2023/04/17 07:48:03;;;;;;;66.57;44.88;;;10.40;99.90;;;;;;5039372;28;20039;-52
2023/04/17 07:50:29;;;;;;;63.97;44.03;;;10.50;99.90;;;;;;5041920;28;20041;-52
2023/04/17 07:52:55;;;;;;;66.90;45.78;;;10.60;99.90;;;;;;5041220;28;20037;-52
2023/04/17 07:55:20;;;;;;;65.35;44.35;;;10.70;99.90;;;;;;5033636;28;20045;-53
2023/04/17 07:57:48;;;;;;;63.75;44.03;;;10.50;99.90;;;;;;5036609;28;20064;-52
2023/04/17 08:00:15;;;;;;;62.15;42.60;;;10.60;99.90;;;;;;5037205;28;20037;-53
2023/04/17 08:02:41;;;;;;;63.30;44.25;;;10.60;99.90;;;;;;5037549;28;20798;-53
2023/04/17 08:05:08;;;;;;;60.67;42.90;;;10.60;99.90;;;;;;5035928;28;20067;-53
2023/04/17 08:07:34;;;;;;;60.17;41.53;;;10.60;99.90;;;;;;5035725;28;20060;-57
2023/04/17 08:10:00;;;;;;;57.88;40.05;;;10.70;99.90;;;;;;5036661;28;20143;-57
2023/04/17 08:12:26;;;;;;;59.85;38.05;;;10.70;99.90;;;;;;5034398;28;20156;-57
2023/04/17 08:14:51;;;;;;;55.95;40.22;;;10.60;99.90;;;;;;5036729;28;20120;-57
2023/04/17 08:17:21;;;;;;;55.60;39.25;;;10.60;99.90;;;;;;5036062;28;20076;-57
2023/04/17 08:19:49;;;;;;;58.03;40.10;;;10.60;99.90;;;;;;5052855;28;20067;-57
2023/04/17 08:22:15;;;;;;;55.78;40.20;;;10.60;99.90;;;;;;5034988;28;20103;-57
2023/04/17 08:24:41;;;;;;;53.58;37.22;;;10.60;99.90;;;;;;5037323;28;20033;-57
2023/04/17 08:27:07;;;;;;;52.75;38.47;;;10.70;99.90;;;;;;5038423;28;20037;-57
2023/04/17 08:29:32;;;;;;;57.45;38.42;;;10.70;99.90;;;;;;5035296;28;20049;-57
2023/04/17 08:31:58;;;;;;;56.63;38.97;;;10.50;99.90;;;;;;5036518;28;20147;-58
2023/04/17 08:34:23;;;;;;;51.67;35.95;;;10.60;99.90;;;;;;5032219;28;20046;-57
2023/04/17 08:36:49;;;;;;;57.20;37.97;;;10.60;99.90;;;;;;5033516;28;20033;-57
2023/04/17 08:39:15;;;;;;;54.20;38.28;;;10.70;99.90;;;;;;5037042;28;20109;-57
2023/04/17 08:41:59;;;;;;;60.58;39.15;;;10.70;99.90;;;;;;5030460;28;20035;-57
2023/04/17 08:44:24;;;;;;;;;;;11.00;99.90;;;;;;5033305;28;22347;-57
2023/04/17 08:46:51;;;;;;;55.47;38.60;;;11.10;99.90;;;;;;5035650;28;19932;-57
2023/04/17 08:49:17;;;;;;;60.60;40.17;;;11.10;99.90;;;;;;5035321;28;20119;-57
2023/04/17 08:51:43;;;;;;;57.55;40.22;;;11.20;99.90;;;;;;5035143;28;20686;-56
2023/04/17 08:54:08;;;;;;;56.65;39.83;;;11.20;99.90;;;;;;5034618;28;20128;-57
2023/04/17 08:56:34;;;;;;;54.20;38.80;;;11.20;99.90;;;;;;5037536;28;20115;-57
2023/04/17 08:59:00;;;;;;;54.88;39.95;;;11.50;99.90;;;;;;5035047;28;20041;-56
2023/04/17 09:01:28;;;;;;;58.95;41.45;;;11.60;99.90;;;;;;5036384;28;20049;-57
2023/04/17 09:03:55;;;;;;;57.53;41.63;;;11.50;99.90;;;;;;5034674;28;20033;-56
2023/04/17 09:06:21;;;;;;;61.47;41.97;;;11.60;99.90;;;;;;5033096;28;21518;-57
2023/04/17 09:08:59;;;;;;;58.47;39.58;;;11.70;99.90;;;;;;5033506;28;20061;-57
2023/04/17 09:11:25;;;;;;;61.85;41.47;;;11.70;99.90;;;;;;5041440;28;20531;-56
2023/04/17 09:13:51;;;;;;;54.50;38.22;;;11.80;99.90;;;;;;5040592;28;20677;-56
2023/04/17 09:16:20;;;;;;;53.83;37.88;;;11.90;99.90;;;;;;5037800;28;20057;-57
2023/04/17 09:18:46;;;;;;;53.47;37.13;;;11.70;99.90;;;;;;5035439;28;20049;-57
2023/04/17 09:21:15;;;;;;;50.83;36.67;;;11.90;99.90;;;;;;5040691;28;20033;-56
2023/04/17 09:23:50;;;;;;;48.97;35.30;;;11.90;99.90;;;;;;5028796;28;20036;-56
2023/04/17 09:26:18;;;;;;;49.67;35.97;;;11.80;99.90;;;;;;5035444;28;20049;-56
2023/04/17 09:29:02;;;;;;;50.00;36.03;;;11.90;99.90;;;;;;5036236;28;20044;-56
2023/04/17 09:31:29;;;;;;;51.17;37.17;;;12.10;99.90;;;;;;5033551;28;20079;-57
2023/04/17 09:33:59;;;;;;;46.40;35.78;;;12.00;99.90;;;;;;5035991;28;20041;-56
2023/04/17 09:36:26;;;;;;;49.17;36.38;;;12.20;99.90;;;;;;5037278;28;20037;-57
2023/04/17 09:38:52;;;;;;;46.70;33.97;;;12.30;99.90;;;;;;5034754;28;20033;-57
2023/04/17 09:41:37;;;;;;;47.92;34.28;;;12.20;99.90;;;;;;5037408;28;20047;-56
2023/04/17 09:44:08;;;;;;;40.05;33.15;;;12.40;99.90;;;;;;5033350;28;20035;-56
2023/04/17 09:46:40;;;;;;;43.30;31.83;;;12.30;99.90;;;;;;5031499;28;20036;-56
2023/04/17 09:49:32;;;;;;;44.05;33.20;;;12.40;99.90;;;;;;5039635;28;20029;-56
2023/04/17 09:51:58;;;;;;;47.00;33.80;;;12.40;99.90;;;;;;5033858;28;20033;-56
2023/04/17 09:54:24;;;;;;;40.80;31.40;;;12.50;99.90;;;;;;5035910;28;20351;-56
2023/04/17 09:56:54;;;;;;;40.03;27.65;;;12.40;99.90;;;;;;5033391;28;20565;-56
2023/04/17 09:59:22;;;;;;;36.65;28.67;;;12.30;99.90;;;;;;5028838;28;20045;-57
2023/04/17 10:01:49;;;;;;;37.35;29.10;;;12.30;99.90;;;;;;5033302;28;20044;-56
2023/04/17 10:04:14;;;;;;;38.05;30.73;;;12.50;99.90;;;;;;5039856;28;20125;-57
2023/04/17 10:06:40;;;;;;;35.78;28.95;;;12.80;99.90;;;;;;5030039;28;20119;-57
2023/04/17 10:09:07;;;;;;;37.13;30.27;;;12.80;99.90;;;;;;5031338;28;20064;-57
2023/04/17 10:11:44;;;;;;;41.28;32.80;;;12.90;99.90;;;;;;5038504;28;20658;-56
2023/04/17 10:14:24;;;;;;;43.90;30.15;;;12.90;99.90;;;;;;5034279;28;20531;-57
2023/04/17 10:16:50;;;;;;;38.35;31.00;;;13.10;99.90;;;;;;5026719;28;20087;-57
2023/04/17 10:19:30;;;;;;;35.38;28.23;;;12.90;99.90;;;;;;5029924;28;20455;-56
2023/04/17 10:22:14;;;;;;;37.65;27.92;;;12.80;99.90;;;;;;5029759;28;20390;-57
2023/04/17 10:24:43;;;;;;;37.17;26.30;;;13.00;99.90;;;;;;5042408;28;20044;-57
2023/04/17 10:27:31;;;;;;;40.05;26.48;;;13.00;99.90;;;;;;5046398;28;20090;-57
2023/04/17 10:30:01;;;;;;;33.83;25.60;;;13.00;99.90;;;;;;5042854;28;20039;-56
2023/04/17 10:32:27;;;;;;;31.17;26.05;;;13.00;99.90;;;;;;5048297;28;20041;-57
2023/04/17 10:34:58;;;;;;;32.60;25.75;;;13.10;99.90;;;;;;5039683;28;20151;-57
2023/04/17 10:37:46;;;;;;;29.35;24.35;;;13.40;99.90;;;;;;5031498;28;20104;-57
2023/04/17 10:40:19;;;;;;;25.85;20.95;;;13.60;99.90;;;;;;5036474;28;20057;-57
2023/04/17 10:43:30;;;;;;;29.17;20.42;;;13.70;99.90;;;;;;5033905;28;20052;-57
2023/04/17 10:46:02;;;;;;;29.58;21.63;;;13.70;99.90;;;;;;5030970;28;20037;-57
2023/04/17 10:48:35;;;;;;;25.03;18.93;;;13.80;99.90;;;;;;5048181;28;20548;-57
2023/04/17 10:51:20;;;;;;;;;;;13.80;99.90;;;;;;5038638;28;20034;-57
2023/04/17 10:53:48;;;;;;;24.30;18.08;;;13.60;99.90;;;;;;5045912;28;19909;-56
2023/04/17 10:56:37;;;;;;;22.20;15.95;;;13.60;99.90;;;;;;5037815;28;20140;-57
2023/04/17 10:59:04;;;;;;;21.30;16.73;;;13.50;99.90;;;;;;5039447;28;20793;-56
2023/04/17 11:01:56;;;;;;;23.50;16.42;;;13.50;99.90;;;;;;5039241;28;20044;-56
2023/04/17 11:04:30;;;;;;;21.65;16.50;;;13.80;99.90;;;;;;5033973;28;20037;-57
2023/04/17 11:06:56;;;;;;;21.95;16.80;;;14.00;99.90;;;;;;5037456;28;20037;-56
2023/04/17 11:09:27;;;;;;;23.83;16.83;;;14.00;99.90;;;;;;5039339;28;20375;-56
2023/04/17 11:11:53;;;;;;;20.75;16.20;;;14.10;99.90;;;;;;5040425;28;20030;-57
2023/04/17 11:14:21;;;;;;;21.48;17.08;;;14.20;99.90;;;;;;5042379;28;20124;-58
2023/04/17 11:16:48;;;;;;;19.58;16.02;;;14.30;99.90;;;;;;5039645;28;20135;-57
2023/04/17 11:19:22;;;;;;;24.80;15.07;;;14.40;99.90;;;;;;5040749;28;20168;-57
2023/04/17 11:21:54;;;;;;;24.95;16.73;;;14.40;99.90;;;;;;5036434;28;20694;-57
2023/04/17 11:24:23;;;;;;;21.95;17.15;;;14.20;99.90;;;;;;5034699;28;20681;-57
2023/04/17 11:26:48;;;;;;;21.48;14.75;;;14.20;99.90;;;;;;5038035;28;20029;-57
2023/04/17 11:29:21;;;;;;;17.48;14.38;;;14.50;99.90;;;;;;5029377;28;20728;-57
2023/04/17 11:31:50;;;;;;;19.70;13.27;;;14.40;99.90;;;;;;5030529;28;20032;-57
2023/04/17 11:34:16;;;;;;;17.88;13.05;;;14.30;99.90;;;;;;5034457;28;20033;-57
2023/04/17 11:36:56;;;;;;;16.67;12.15;;;14.40;99.90;;;;;;5035285;28;20040;-57
2023/04/17 11:39:23;;;;;;;16.90;12.23;;;14.20;99.90;;;;;;5033098;28;20056;-57
2023/04/17 11:41:50;;;;;;;19.50;13.20;;;14.40;99.90;;;;;;5044649;28;20365;-57
2023/04/17 11:44:17;;;;;;;19.42;12.95;;;14.40;99.90;;;;;;5036234;28;20141;-57
2023/04/17 11:46:51;;;;;;;16.60;13.40;;;14.40;99.90;;;;;;5038305;28;20036;-57
2023/04/17 11:49:31;;;;;;;15.32;11.98;;;14.50;99.90;;;;;;5038938;28;20056;-57
2023/04/17 11:52:02;;;;;;;16.00;11.32;;;14.60;99.90;;;;;;5035050;28;20121;-57
2023/04/17 11:54:36;;;;;;;17.50;10.85;;;14.60;99.90;;;;;;5037239;28;20051;-56
2023/04/17 11:57:10;;;;;;;17.20;10.88;;;14.80;99.90;;;;;;5036175;28;20556;-57
2023/04/17 11:59:37;;;;;;;13.75;10.98;;;14.80;99.90;;;;;;5041787;28;20028;-57
2023/04/17 12:02:05;;;;;;;13.63;11.52;;;14.90;99.90;;;;;;5040987;28;20120;-57
2023/04/17 12:04:33;;;;;;;14.90;10.77;;;14.90;99.90;;;;;;5037407;28;20037;-57
2023/04/17 12:07:03;;;;;;;15.25;11.00;;;15.00;99.90;;;;;;5034950;28;20057;-57
2023/04/17 12:09:32;;;;;;;17.80;10.43;;;15.10;99.90;;;;;;5038849;28;20029;-56
2023/04/17 12:12:00;;;;;;;14.43;10.13;;;15.00;99.90;;;;;;5042226;28;20064;-57
2023/04/17 12:14:26;;;;;;;13.15;8.82;;;14.80;99.90;;;;;;5039033;28;20051;-57
2023/04/17 12:16:51;;;;;;;13.25;9.13;;;14.80;99.90;;;;;;5040390;28;20034;-58
2023/04/17 12:19:18;;;;;;;12.70;9.80;;;14.70;99.90;;;;;;5040778;28;20075;-58
2023/04/17 12:21:47;;;;;;;13.25;8.55;;;14.80;99.90;;;;;;5035456;28;20036;-58
2023/04/17 12:24:14;;;;;;;12.23;8.27;;;15.00;99.90;;;;;;5036144;28;20401;-59
2023/04/17 12:26:46;;;;;;;8.32;6.95;;;15.10;99.90;;;;;;5034042;28;20120;-58
2023/04/17 12:29:13;;;;;;;11.15;6.93;;;14.90;99.90;;;;;;5034553;28;20385;-58
2023/04/17 12:31:39;;;;;;;9.80;6.78;;;14.80;99.90;;;;;;5038863;28;20219;-58
2023/04/17 12:34:04;;;;;;;13.23;7.00;;;14.70;99.90;;;;;;5042420;28;20115;-58